createdAt,value
2022-08-07T00:02:36.883Z,10.55
2022-08-07T00:05:03.946Z,10.41
2022-08-07T00:07:40.266Z,10.37
2022-08-07T00:10:30.666Z,10.36
2022-08-07T00:13:09.872Z,10.37
2022-08-07T00:15:52.758Z,10.27
2022-08-07T00:18:26.056Z,10.25
2022-08-07T00:21:01.964Z,10.15
2022-08-07T00:23:34.026Z,10.13
2022-08-07T00:26:18.687Z,10.15
2022-08-07T00:28:57.005Z,10.22
2022-08-07T00:31:37.163Z,10.27
2022-08-07T00:34:09.537Z,10.26
2022-08-07T00:36:42.999Z,10.36
2022-08-07T00:39:16.497Z,10.34
2022-08-07T00:41:53.599Z,10.17
2022-08-07T00:44:31.556Z,10.15
2022-08-07T00:47:03.827Z,10.19
2022-08-07T00:50:20.696Z,10.26
2022-08-07T00:52:25.984Z,10.32
2022-08-07T00:54:55.706Z,10.21
2022-08-07T00:57:25.262Z,10.25
2022-08-07T00:59:56.176Z,10.30
2022-08-07T01:02:28.410Z,10.32
2022-08-07T01:04:58.732Z,10.25
2022-08-07T01:07:32.003Z,10.22
2022-08-07T01:10:06.279Z,10.13
2022-08-07T01:12:53.361Z,10.03
2022-08-07T01:16:00.646Z,10.00
2022-08-07T01:18:17.713Z,9.98
2022-08-07T01:20:57.498Z,10.02
2022-08-07T01:23:35.410Z,10.03
2022-08-07T01:26:13.488Z,10.05
2022-08-07T01:28:48.452Z,9.92
2022-08-07T01:31:18.293Z,10.00
2022-08-07T01:33:55.211Z,9.91
2022-08-07T01:36:33.347Z,9.90
2022-08-07T01:39:09.661Z,9.91
2022-08-07T01:42:01.563Z,9.86
2022-08-07T01:44:28.815Z,9.84
2022-08-07T01:48:16.985Z,9.80
2022-08-07T01:49:54.564Z,9.77
2022-08-07T01:52:27.397Z,9.72
2022-08-07T01:55:01.265Z,9.76
2022-08-07T01:58:06.157Z,9.71
2022-08-07T02:00:32.859Z,9.68
2022-08-07T02:03:18.553Z,9.61
2022-08-07T02:05:59.768Z,9.62
2022-08-07T02:08:30.633Z,9.44
2022-08-07T02:11:03.442Z,9.33
2022-08-07T02:13:57.177Z,9.26
2022-08-07T02:16:28.789Z,9.22
2022-08-07T02:19:05.477Z,9.41
2022-08-07T02:21:58.558Z,9.37
2022-08-07T02:24:30.346Z,9.37
2022-08-07T02:27:03.556Z,9.33
2022-08-07T02:29:36.882Z,9.16
2022-08-07T02:32:23.352Z,9.07
2022-08-07T02:34:57.677Z,8.95
2022-08-07T02:37:34.108Z,8.91
2022-08-07T02:40:29.949Z,9.01
2022-08-07T02:43:01.165Z,9.02
2022-08-07T02:45:58.981Z,9.01
2022-08-07T02:48:31.699Z,9.06
2022-08-07T02:51:06.359Z,8.98
2022-08-07T02:53:39.396Z,8.96
2022-08-07T02:56:21.174Z,8.98
2022-08-07T02:58:55.471Z,9.06
2022-08-07T03:01:36.485Z,8.99
2022-08-07T03:04:12.882Z,9.08
2022-08-07T03:06:44.780Z,9.07
2022-08-07T03:09:43.668Z,9.08
2022-08-07T03:12:08.137Z,9.19
2022-08-07T03:14:56.319Z,9.13
2022-08-07T03:17:26.874Z,9.11
2022-08-07T03:19:58.020Z,9.20
2022-08-07T03:22:29.688Z,9.26
2022-08-07T03:25:03.805Z,9.27
2022-08-07T03:27:59.075Z,9.23
2022-08-07T03:30:26.049Z,9.48
2022-08-07T03:32:58.872Z,9.51
2022-08-07T03:35:44.075Z,9.59
2022-08-07T03:38:21.491Z,9.76
2022-08-07T03:41:03.372Z,9.81
2022-08-07T03:43:32.251Z,9.86
2022-08-07T03:46:10.527Z,9.93
2022-08-07T03:49:02.484Z,9.92
2022-08-07T03:51:47.195Z,10.08
2022-08-07T03:54:36.279Z,10.16
2022-08-07T03:57:10.025Z,10.22
2022-08-07T04:00:01.829Z,10.26
2022-08-07T04:02:35.986Z,10.39
2022-08-07T04:05:09.802Z,10.51
2022-08-07T04:07:48.498Z,10.59
2022-08-07T04:10:19.042Z,10.77
2022-08-07T04:12:50.418Z,10.87
2022-08-07T04:15:19.401Z,10.95
2022-08-07T04:18:56.413Z,11.00
2022-08-07T04:20:54.674Z,11.12
2022-08-07T04:23:43.830Z,11.52
2022-08-07T04:26:16.894Z,11.79
2022-08-07T04:28:53.606Z,11.83
2022-08-07T04:31:38.953Z,11.89
2022-08-07T04:34:27.483Z,12.16
2022-08-07T04:37:01.978Z,12.59
2022-08-07T04:39:36.334Z,12.62
2022-08-07T04:42:05.628Z,12.69
2022-08-07T04:44:33.801Z,12.90
2022-08-07T04:47:11.141Z,13.15
2022-08-07T04:50:09.313Z,13.24
2022-08-07T04:52:51.011Z,13.33
2022-08-07T04:58:15.883Z,13.57
2022-08-07T04:58:33.635Z,13.90
2022-08-07T05:01:18.472Z,13.97
2022-08-07T05:04:06.816Z,14.08
2022-08-07T05:06:51.548Z,14.21
2022-08-07T05:09:43.243Z,14.49
2022-08-07T05:12:27.078Z,14.57
2022-08-07T05:15:03.541Z,14.73
2022-08-07T05:17:51.624Z,14.82
2022-08-07T05:20:26.876Z,15.83
2022-08-07T05:23:00.888Z,17.01
2022-08-07T05:25:36.742Z,18.30
2022-08-07T05:28:27.016Z,18.61
2022-08-07T05:30:58.140Z,19.39
2022-08-07T05:33:30.593Z,19.26
2022-08-07T05:36:05.671Z,19.21
2022-08-07T05:39:01.294Z,19.40
2022-08-07T05:41:26.833Z,19.56
2022-08-07T05:44:16.443Z,18.72
2022-08-07T05:47:00.993Z,18.31
2022-08-07T05:49:40.504Z,18.18
2022-08-07T05:52:11.586Z,17.60
2022-08-07T05:54:44.411Z,17.67
2022-08-07T05:57:26.704Z,17.79
2022-08-07T06:00:01.422Z,17.58
2022-08-07T06:02:34.145Z,17.27
2022-08-07T06:05:06.135Z,17.55
2022-08-07T06:08:12.984Z,17.23
2022-08-07T06:10:26.449Z,16.73
2022-08-07T06:12:54.620Z,16.66
2022-08-07T06:15:42.202Z,16.90
2022-08-07T06:18:15.483Z,17.26
2022-08-07T06:20:50.904Z,17.30
2022-08-07T06:24:36.943Z,17.04
2022-08-07T06:26:27.559Z,17.23
2022-08-07T06:29:01.980Z,17.36
2022-08-07T06:31:38.521Z,17.22
2022-08-07T06:34:21.535Z,17.38
2022-08-07T06:36:51.910Z,17.32
2022-08-07T06:40:16.096Z,17.85
2022-08-07T06:42:17.678Z,17.56
2022-08-07T06:44:51.552Z,17.39
2022-08-07T06:47:19.364Z,17.19
2022-08-07T06:49:58.591Z,17.38
2022-08-07T06:52:32.049Z,17.90
2022-08-07T06:55:32.587Z,17.86
2022-08-07T06:58:00.348Z,18.23
2022-08-07T07:00:32.422Z,18.77
2022-08-07T07:03:01.247Z,17.90
2022-08-07T07:06:03.765Z,18.35
2022-08-07T07:08:27.257Z,18.07
2022-08-07T07:10:59.569Z,17.90
2022-08-07T07:13:56.612Z,17.68
2022-08-07T07:16:27.625Z,17.64
2022-08-07T07:19:04.032Z,17.84
2022-08-07T07:22:05.053Z,17.73
2022-08-07T07:24:32.149Z,17.77
2022-08-07T07:27:04.029Z,17.96
2022-08-07T07:29:57.172Z,18.29
2022-08-07T07:32:26.383Z,18.66
2022-08-07T07:34:56.926Z,18.73
2022-08-07T07:37:45.216Z,18.75
2022-08-07T07:40:18.425Z,18.64
2022-08-07T07:42:51.272Z,18.43
2022-08-07T07:46:39.946Z,18.45
2022-08-07T07:48:34.769Z,18.43
2022-08-07T07:51:08.143Z,19.03
2022-08-07T07:53:48.162Z,19.14
2022-08-07T07:56:30.382Z,18.70
2022-08-07T07:58:59.850Z,18.75
2022-08-07T08:02:01.609Z,18.91
2022-08-07T08:04:18.669Z,19.57
2022-08-07T08:06:53.187Z,19.82
2022-08-07T08:09:23.201Z,19.26
2022-08-07T08:12:03.102Z,19.31
2022-08-07T08:14:34.493Z,19.57
2022-08-07T08:17:56.472Z,19.53
2022-08-07T08:20:18.168Z,20.19
2022-08-07T08:24:34.422Z,20.93
2022-08-07T08:27:09.640Z,20.20
2022-08-07T08:29:54.169Z,20.59
2022-08-07T08:32:25.619Z,20.84
2022-08-07T08:35:09.869Z,20.55
2022-08-07T08:38:01.388Z,20.65
2022-08-07T08:40:33.663Z,21.17
2022-08-07T08:43:05.016Z,21.39
2022-08-07T08:45:58.557Z,21.36
2022-08-07T08:48:32.507Z,19.65
2022-08-07T08:51:14.799Z,19.17
2022-08-07T08:53:57.700Z,19.50
2022-08-07T08:56:35.146Z,19.16
2022-08-07T08:59:06.363Z,19.17
2022-08-07T09:01:49.414Z,19.05
2022-08-07T09:04:26.035Z,19.60
2022-08-07T09:07:03.353Z,19.81
2022-08-07T09:09:48.183Z,20.12
2022-08-07T09:12:37.742Z,19.69
2022-08-07T09:16:23.616Z,19.97
2022-08-07T09:18:32.544Z,19.75
2022-08-07T09:21:13.931Z,19.87
2022-08-07T09:24:54.110Z,19.75
2022-08-07T09:26:57.111Z,19.76
2022-08-07T09:30:03.872Z,19.93
2022-08-07T09:32:31.016Z,20.88
2022-08-07T09:36:04.125Z,21.61
2022-08-07T09:37:55.671Z,21.36
2022-08-07T09:40:35.628Z,20.51
2022-08-07T09:43:09.284Z,19.97
2022-08-07T09:47:27.797Z,19.91
2022-08-07T09:49:59.444Z,20.38
2022-08-07T09:52:16.758Z,21.14
2022-08-07T09:54:41.301Z,21.73
2022-08-07T09:57:31.732Z,22.33
2022-08-07T10:00:08.390Z,22.66
2022-08-07T10:02:45.131Z,22.40
2022-08-07T10:05:29.637Z,22.61
2022-08-07T10:08:30.662Z,21.55
2022-08-07T10:11:58.963Z,20.95
2022-08-07T10:14:02.339Z,20.57
2022-08-07T10:16:36.638Z,20.58
2022-08-07T10:19:41.309Z,20.27
2022-08-07T10:22:24.839Z,20.61
2022-08-07T10:25:09.809Z,21.42
2022-08-07T10:27:47.458Z,21.93
2022-08-07T10:30:22.580Z,20.98
2022-08-07T10:33:01.165Z,20.95
2022-08-07T10:35:55.755Z,21.16
2022-08-07T10:38:42.006Z,20.80
2022-08-07T10:41:47.051Z,21.73
2022-08-07T10:44:13.283Z,22.23
2022-08-07T10:46:53.038Z,21.85
2022-08-07T10:49:41.671Z,21.17
2022-08-07T10:52:18.024Z,21.70
2022-08-07T10:54:53.470Z,22.01
2022-08-07T10:57:37.018Z,22.44
2022-08-07T11:00:08.778Z,22.99
2022-08-07T11:02:49.148Z,23.08
2022-08-07T11:05:35.897Z,22.34
2022-08-07T11:08:21.071Z,21.18
2022-08-07T11:11:00.378Z,20.48
2022-08-07T11:14:45.363Z,20.40
2022-08-07T11:16:29.847Z,20.68
2022-08-07T11:19:02.347Z,21.41
2022-08-07T11:21:42.762Z,21.28
2022-08-07T11:24:16.342Z,21.52
2022-08-07T11:26:50.247Z,21.18
2022-08-07T11:29:41.476Z,20.83
2022-08-07T11:32:15.237Z,20.41
2022-08-07T11:34:56.615Z,20.69
2022-08-07T11:37:38.511Z,20.85
2022-08-07T11:40:28.598Z,20.94
2022-08-07T11:43:01.746Z,21.40
2022-08-07T11:45:35.997Z,21.00
2022-08-07T11:48:29.062Z,21.39
2022-08-07T11:51:10.164Z,21.48
2022-08-07T11:54:12.129Z,20.52
2022-08-07T11:56:46.675Z,20.67
2022-08-07T12:00:10.535Z,20.48
2022-08-07T12:02:32.104Z,20.28
2022-08-07T12:05:15.497Z,20.93
2022-08-07T12:08:04.162Z,20.89
2022-08-07T12:10:36.199Z,20.37
2022-08-07T12:13:17.159Z,20.18
2022-08-07T12:16:06.153Z,20.36
2022-08-07T12:18:37.902Z,20.35
2022-08-07T12:21:55.946Z,20.35
2022-08-07T12:24:36.742Z,20.77
2022-08-07T12:27:00.310Z,20.69
2022-08-07T12:29:38.057Z,20.60
2022-08-07T12:32:13.742Z,20.87
2022-08-07T12:34:49.518Z,20.69
2022-08-07T12:37:28.208Z,20.76
2022-08-07T12:40:43.677Z,20.70
2022-08-07T12:43:03.300Z,20.63
2022-08-07T12:45:44.315Z,20.51
2022-08-07T12:48:41.619Z,20.75
2022-08-07T12:51:21.017Z,20.74
2022-08-07T12:54:03.272Z,20.43
2022-08-07T12:59:20.459Z,20.49
2022-08-07T13:01:59.697Z,20.50
2022-08-07T13:04:48.955Z,20.87
2022-08-07T13:08:13.798Z,21.20
2022-08-07T13:11:02.718Z,21.60
2022-08-07T13:13:48.734Z,21.63
2022-08-07T13:16:30.482Z,21.46
2022-08-07T13:19:11.543Z,21.28
2022-08-07T13:21:59.033Z,20.97
2022-08-07T13:24:43.991Z,21.28
2022-08-07T13:28:05.606Z,21.23
2022-08-07T13:30:18.886Z,21.28
2022-08-07T13:33:16.442Z,21.15
2022-08-07T13:36:17.495Z,20.90
2022-08-07T13:38:54.402Z,21.05
2022-08-07T13:41:33.238Z,20.80
2022-08-07T13:44:10.266Z,20.85
2022-08-07T13:46:49.233Z,21.06
2022-08-07T13:50:34.377Z,21.38
2022-08-07T13:52:31.801Z,21.21
2022-08-07T13:55:11.007Z,21.34
2022-08-07T13:57:59.066Z,21.92
2022-08-07T14:00:50.652Z,21.60
2022-08-07T14:04:01.602Z,21.29
2022-08-07T14:06:16.789Z,21.50
2022-08-07T14:08:48.791Z,21.38
2022-08-07T14:11:53.650Z,21.28
2022-08-07T14:14:18.777Z,21.15
2022-08-07T14:16:56.829Z,21.04
2022-08-07T14:20:40.549Z,20.96
2022-08-07T14:22:34.471Z,20.64
2022-08-07T14:25:14.478Z,20.36
2022-08-07T14:28:12.281Z,20.38
2022-08-07T14:30:40.635Z,20.66
2022-08-07T14:33:11.973Z,21.19
2022-08-07T14:35:47.611Z,20.97
2022-08-07T14:38:30.624Z,21.00
2022-08-07T14:41:04.122Z,20.74
2022-08-07T14:43:56.943Z,21.21
2022-08-07T14:46:31.393Z,21.50
2022-08-07T14:49:55.854Z,21.76
2022-08-07T14:52:03.661Z,22.06
2022-08-07T14:54:41.989Z,21.92
2022-08-07T14:57:14.953Z,21.91
2022-08-07T15:00:05.751Z,21.90
2022-08-07T15:02:37.320Z,22.07
2022-08-07T15:05:20.464Z,21.66
2022-08-07T15:10:58.761Z,21.01
2022-08-07T15:13:37.009Z,21.06
2022-08-07T15:16:19.781Z,21.21
2022-08-07T15:19:04.013Z,21.34
2022-08-07T15:25:16.169Z,20.37
2022-08-07T15:27:32.743Z,20.56
2022-08-07T15:30:16.196Z,20.80
2022-08-07T15:33:03.908Z,20.66
2022-08-07T15:36:00.847Z,20.49
2022-08-07T15:38:30.672Z,20.55
2022-08-07T15:44:10.402Z,20.52
2022-08-07T15:50:06.109Z,20.70
2022-08-07T15:52:30.813Z,20.49
2022-08-07T15:55:02.463Z,20.44
2022-08-07T15:57:47.517Z,20.38
2022-08-07T16:00:31.028Z,20.41
2022-08-07T16:03:02.705Z,20.52
2022-08-07T16:05:33.904Z,20.65
2022-08-07T16:08:32.013Z,20.50
2022-08-07T16:10:59.819Z,20.40
2022-08-07T16:13:59.956Z,20.40
2022-08-07T16:16:51.172Z,20.18
2022-08-07T16:19:41.788Z,20.22
2022-08-07T16:22:36.401Z,20.15
2022-08-07T16:25:23.361Z,19.97
2022-08-07T16:30:09.271Z,19.83
2022-08-07T16:31:57.048Z,19.86
2022-08-07T16:34:40.746Z,19.84
2022-08-07T16:38:05.230Z,20.00
2022-08-07T16:40:57.549Z,20.12
2022-08-07T16:44:04.102Z,19.78
2022-08-07T16:47:45.464Z,19.72
2022-08-07T16:50:35.187Z,19.81
2022-08-07T16:54:02.072Z,19.83
2022-08-07T16:56:21.106Z,19.62
2022-08-07T16:59:10.737Z,19.75
2022-08-07T17:01:52.513Z,19.71
2022-08-07T17:04:35.409Z,19.66
2022-08-07T17:07:13.500Z,19.68
2022-08-07T17:10:05.981Z,19.57
2022-08-07T17:12:45.418Z,19.54
2022-08-07T17:15:20.614Z,19.49
2022-08-07T17:17:52.998Z,19.43
2022-08-07T17:20:30.858Z,19.39
2022-08-07T17:23:02.269Z,19.17
2022-08-07T17:25:47.397Z,19.22
2022-08-07T17:28:25.378Z,18.98
2022-08-07T17:31:15.985Z,18.87
2022-08-07T17:34:15.473Z,18.85
2022-08-07T17:36:49.047Z,18.85
2022-08-07T17:39:58.687Z,18.80
2022-08-07T17:42:32.567Z,18.58
2022-08-07T17:45:05.087Z,18.85
2022-08-07T17:47:54.065Z,18.95
2022-08-07T17:50:30.433Z,18.83
2022-08-07T17:53:07.033Z,18.54
2022-08-07T17:56:01.146Z,18.35
2022-08-07T17:58:34.928Z,18.24
2022-08-07T18:01:21.565Z,17.87
2022-08-07T18:04:07.740Z,17.78
2022-08-07T18:06:38.613Z,17.46
2022-08-07T18:09:11.051Z,17.57
2022-08-07T18:12:11.934Z,17.31
2022-08-07T18:14:57.861Z,17.61
2022-08-07T18:18:44.805Z,17.42
2022-08-07T18:21:08.290Z,17.15
2022-08-07T18:23:43.364Z,16.91
2022-08-07T18:26:18.971Z,17.04
2022-08-07T18:29:04.313Z,16.95
2022-08-07T18:31:50.294Z,17.01
2022-08-07T18:34:40.856Z,16.60
2022-08-07T18:38:58.330Z,16.50
2022-08-07T18:40:39.870Z,16.29
2022-08-07T18:43:15.177Z,16.10
2022-08-07T18:46:24.454Z,16.02
2022-08-07T18:50:19.123Z,15.96
2022-08-07T18:52:38.899Z,15.64
2022-08-07T18:54:36.275Z,15.47
2022-08-07T18:57:31.030Z,15.43
2022-08-07T19:00:32.963Z,15.35
2022-08-07T19:02:56.505Z,15.29
2022-08-07T19:06:04.119Z,15.16
2022-08-07T19:08:20.159Z,14.95
2022-08-07T19:10:58.016Z,14.89
2022-08-07T19:13:32.182Z,14.91
2022-08-07T19:16:43.558Z,14.76
2022-08-07T19:19:01.669Z,14.70
2022-08-07T19:21:45.146Z,14.58
2022-08-07T19:24:30.915Z,14.64
2022-08-07T19:28:57.948Z,14.62
2022-08-07T19:31:05.605Z,14.31
2022-08-07T19:32:59.742Z,14.11
2022-08-07T19:35:33.354Z,14.00
2022-08-07T19:38:16.044Z,14.09
2022-08-07T19:40:51.702Z,14.08
2022-08-07T19:43:49.561Z,13.87
2022-08-07T19:46:29.706Z,13.68
2022-08-07T19:49:10.063Z,13.71
2022-08-07T19:51:51.873Z,13.77
2022-08-07T19:54:44.352Z,13.60
2022-08-07T19:58:03.553Z,13.47
2022-08-07T20:00:28.527Z,13.50
2022-08-07T20:03:04.057Z,13.13
2022-08-07T20:06:00.365Z,13.18
2022-08-07T20:08:32.188Z,12.99
2022-08-07T20:11:10.628Z,12.92
2022-08-07T20:13:47.742Z,12.84
2022-08-07T20:16:35.547Z,12.90
2022-08-07T20:19:09.965Z,12.85
2022-08-07T20:21:47.495Z,12.83
2022-08-07T20:24:21.448Z,12.75
2022-08-07T20:26:54.892Z,12.62
2022-08-07T20:29:47.133Z,12.68
2022-08-07T20:32:39.727Z,12.63
2022-08-07T20:35:15.962Z,12.59
2022-08-07T20:37:59.246Z,12.59
2022-08-07T20:40:34.524Z,12.48
2022-08-07T20:43:14.489Z,12.60
2022-08-07T20:46:28.443Z,12.47
2022-08-07T20:49:00.742Z,12.47
2022-08-07T20:51:51.198Z,12.55
2022-08-07T20:54:29.912Z,12.49
2022-08-07T20:57:10.516Z,12.49
2022-08-07T21:00:08.448Z,12.52
2022-08-07T21:03:10.491Z,12.50
2022-08-07T21:05:55.848Z,12.45
2022-08-07T21:08:37.626Z,12.41
2022-08-07T21:11:17.331Z,12.33
2022-08-07T21:14:29.295Z,12.41
2022-08-07T21:17:06.845Z,12.43
2022-08-07T21:19:51.085Z,12.41
2022-08-07T21:22:30.718Z,12.47
2022-08-07T21:25:15.954Z,12.40
2022-08-07T21:28:13.515Z,12.42
2022-08-07T21:30:58.727Z,12.40
2022-08-07T21:33:44.844Z,12.42
2022-08-07T21:36:32.170Z,12.36
2022-08-07T21:39:46.104Z,12.33
2022-08-07T21:46:10.384Z,12.29
2022-08-07T21:48:34.328Z,12.30
2022-08-07T21:51:25.139Z,12.33
2022-08-07T21:54:13.351Z,12.35
2022-08-07T21:57:01.882Z,12.30
2022-08-07T22:00:04.872Z,12.39
2022-08-07T22:02:53.529Z,12.31
2022-08-07T22:05:45.914Z,12.32
2022-08-07T22:08:27.446Z,12.21
2022-08-07T22:11:10.011Z,12.27
2022-08-07T22:13:53.011Z,12.11
2022-08-07T22:16:42.550Z,12.16
2022-08-07T22:19:29.548Z,12.09
2022-08-07T22:22:20.775Z,11.94
2022-08-07T22:25:08.419Z,11.87
2022-08-07T22:28:07.909Z,11.85
2022-08-07T22:30:52.021Z,11.77
2022-08-07T22:33:53.117Z,11.80
2022-08-07T22:36:41.542Z,11.82
2022-08-07T22:39:28.312Z,11.80
2022-08-07T22:42:19.679Z,11.87
2022-08-07T22:45:02.380Z,11.82
2022-08-07T22:48:54.747Z,11.82
2022-08-07T22:51:51.848Z,11.85
2022-08-07T23:00:03.901Z,11.64
2022-08-07T23:02:52.875Z,11.57
2022-08-07T23:06:09.689Z,11.56
2022-08-07T23:10:01.137Z,11.56
2022-08-07T23:12:04.116Z,11.54
2022-08-07T23:14:51.051Z,11.52
2022-08-07T23:17:45.115Z,11.46
2022-08-07T23:20:53.051Z,11.46
2022-08-07T23:24:04.350Z,11.58
2022-08-07T23:26:55.087Z,11.57
2022-08-07T23:30:37.670Z,11.44
2022-08-07T23:34:22.468Z,11.44
2022-08-07T23:36:29.936Z,11.34
2022-08-07T23:39:13.002Z,11.46
2022-08-07T23:42:15.618Z,11.46
2022-08-07T23:46:01.493Z,11.65
2022-08-07T23:48:34.880Z,11.68
2022-08-07T23:52:58.277Z,11.76
2022-08-07T23:54:44.389Z,11.72
2022-08-07T23:57:22.254Z,11.74
